Flight Track Log - Related Links

Times and Time Zones

All times are in EDT time to prevent confusion due to time zone crossing. See the JBU917 flight status page for this flight to view local times or setup timezone preferences in your user account.

Time Position Orientation Groundspeed Altitude Reporting Facility
EDT Latitude Longitude Course Direction KTS MPH feet Rate Location/Type
Thu 06:02:39 AM 42.3500 -71.0167 160° South 158 182 1,100  Level KA90
Thu 06:04:54 AM 42.3228 -70.8619 103° East 236 272 6,000 2,523 Climbing Boston Center
Thu 06:05:00 AM 42.3792 -70.7292 144° Southeast  Level FlightAware Approximate
Thu 06:05:54 AM 42.3150 -70.7528 95° East 254 292 9,300  Level Boston Center
Thu 06:06:00 AM 42.2868 -70.6847 164° South  Level FlightAware Approximate
Thu 06:06:54 AM 42.2333 -70.7408 174° South 210 242 12,100  Level Boston Center
Thu 06:07:00 AM 42.2368 -70.6517 160° South  Level FlightAware Approximate
Thu 06:07:54 AM 42.1419 -70.7461 182° South 278 320 14,400  Level Boston Center
Thu 06:08:54 AM 42.0419 -70.7489 181° South 310 357 16,800 2,500 Climbing Boston Center
Thu 06:09:54 AM 41.9375 -70.7461 179° South 350 403 19,400 2,350 Climbing Boston Center
Thu 06:10:54 AM 41.8356 -70.7514 182° South 368 423 21,500 1,250 Climbing Boston Center
Thu 06:11:54 AM 41.7467 -70.8039 204° Southwest 372 428 21,900 250 Climbing Boston Center
Thu 06:12:54 AM 41.6500 -70.8925 214° Southwest 386 444 22,000 50 Climbing Boston Center
Thu 06:13:54 AM 41.5592 -70.9642 211° Southwest 386 444 22,000  Level Boston Center
Thu 06:14:54 AM 41.4875 -71.0656 227° Southwest 381 438 22,000  Level Boston Center
Thu 06:15:54 AM 41.4181 -71.1778 230° Southwest 383 441 22,000  Level Boston Center
Thu 06:16:54 AM 41.3503 -71.2869 230° Southwest 389 448 22,000  Level Boston Center
Thu 06:17:54 AM 41.2869 -71.3986 233° Southwest 389 448 22,000  Level Boston Center
Thu 06:18:54 AM 41.2233 -71.5128 233° Southwest 389 448 22,000  Level Boston Center
Thu 06:19:54 AM 41.1928 -71.6264 250° West 375 432 22,000  Level Boston Center
Thu 06:20:54 AM 41.1647 -71.7592 254° West 368 423 22,000  Level Boston Center
Thu 06:21:54 AM 41.1342 -71.8944 253° West 374 430 22,000  Level Boston Center
Thu 06:22:54 AM 41.1056 -72.0406 255° West 383 441 22,000 -700 Level Boston Center
Thu 06:23:54 AM 41.0767 -72.1703 254° West 372 428 20,600 -1,600 Descending Boston Center
Thu 06:24:54 AM 41.0497 -72.2750 251° West 354 407 18,800 -1,750 Descending Boston Center
Thu 06:25:54 AM 41.0228 -72.3933 253° West 342 394 17,100 -1,500 Descending Boston Center
Thu 06:26:54 AM 40.9958 -72.5117 253° West 342 394 15,800 -1,600 Descending Boston Center
Thu 06:27:54 AM 40.9686 -72.6408 254° West 337 388 13,900 -1,800 Descending Boston Center
Thu 06:28:54 AM 40.9433 -72.7478 253° West 337 388 12,200 -1,253 Descending Boston Center
Thu 06:29:25 AM 40.9333 -72.8000 256° West 289 333 12,000 -141 Descending New York TRACON
Thu 06:30:19 AM 40.8833 -72.8667 225° Southwest 281 323 12,000 -316 Level New York TRACON
Thu 06:31:19 AM 40.8333 -72.9500 232° Southwest 271 312 11,400 -1,053 Descending New York TRACON
Thu 06:32:13 AM 40.8000 -73.0167 237° Southwest 273 314 10,000 -1,278 Descending New York TRACON
Thu 06:33:07 AM 40.7500 -73.0833 225° Southwest 274 315 9,100 -1,211 Descending New York TRACON
Thu 06:34:07 AM 40.7333 -73.1833 258° West 268 308 7,700 -1,650 Descending New York TRACON
Thu 06:35:07 AM 40.7333 -73.2667 270° West 254 292 5,800 -1,684 Descending New York TRACON
Thu 06:36:01 AM 40.7500 -73.3500 285° West 261 300 4,500 -1,316 Descending New York TRACON
Thu 06:37:01 AM 40.7833 -73.4333 298° West 252 290 3,300 -1,053 Descending New York TRACON
Thu 06:37:55 AM 40.7833 -73.5167 270° West 240 276 2,500 -684 Descending New York TRACON
Thu 06:38:55 AM 40.7833 -73.6000 270° West 222 255 2,000 -250 Descending New York TRACON
Thu 06:39:55 AM 40.7500 -73.6667 237° Southwest 204 235 2,000 -150 Level New York TRACON
Thu 06:40:55 AM 40.7167 -73.7000 217° Southwest 168 193 1,700 -550 Descending New York TRACON
Thu 06:41:55 AM 40.6833 -73.7167 201° Southwest 130 150 900 -737 Descending New York TRACON
Thu 06:42:49 AM 40.6500 -73.7500 217° Southwest 129 148 300 -667 Descending New York TRACON
Thu 06:44:00 AM 40.6333 -73.7667 North  Level FlightAware Approximate
Thu 06:51:00 AM 40.6398 -73.7789 North  Level Estimated

Login

Don't have an account? Register now (free) for customized features, flight alerts, and more!